createdAt,value
2016-07-30T00:00:20.188Z,21.64
2016-07-30T00:01:32.986Z,21.62
2016-07-30T00:02:27.377Z,21.62
2016-07-30T00:03:30.076Z,21.62
2016-07-30T00:04:30.961Z,21.61
2016-07-30T00:05:26.599Z,21.60
2016-07-30T00:06:28.957Z,21.59
2016-07-30T00:07:15.405Z,21.58
2016-07-30T00:08:32.576Z,21.58
2016-07-30T00:09:25.913Z,21.57
2016-07-30T00:10:27.471Z,21.57
2016-07-30T00:11:23.071Z,21.61
2016-07-30T00:12:27.619Z,21.54
2016-07-30T00:13:23.402Z,21.56
2016-07-30T00:14:25.459Z,21.56
2016-07-30T00:15:26.779Z,21.54
2016-07-30T00:16:29.200Z,21.54
2016-07-30T00:17:27.474Z,21.54
2016-07-30T00:18:14.679Z,21.54
2016-07-30T00:19:27.425Z,21.54
2016-07-30T00:20:27.743Z,21.55
2016-07-30T00:21:24.849Z,21.52
2016-07-30T00:22:26.947Z,21.59
2016-07-30T00:23:26.179Z,21.53
2016-07-30T00:24:25.816Z,21.54
2016-07-30T00:25:34.006Z,21.52
2016-07-30T00:26:27.739Z,21.60
2016-07-30T00:27:26.483Z,21.52
2016-07-30T00:28:25.150Z,21.51
2016-07-30T00:29:12.877Z,21.48
2016-07-30T00:30:23.247Z,21.48
2016-07-30T00:31:28.042Z,21.49
2016-07-30T00:32:31.987Z,21.46
2016-07-30T00:33:26.461Z,21.47
2016-07-30T00:34:27.519Z,21.46
2016-07-30T00:35:37.486Z,21.41
2016-07-30T00:36:26.803Z,21.41
2016-07-30T00:37:22.066Z,21.41
2016-07-30T00:38:14.354Z,21.42
2016-07-30T00:39:23.936Z,21.45
2016-07-30T00:40:28.802Z,21.44
2016-07-30T00:41:12.769Z,21.41
2016-07-30T00:42:26.111Z,21.40
2016-07-30T00:43:26.664Z,21.41
2016-07-30T00:44:23.828Z,21.39
2016-07-30T00:45:32.181Z,21.38
2016-07-30T00:46:26.407Z,21.38
2016-07-30T00:47:26.486Z,21.38
2016-07-30T00:48:32.605Z,21.37
2016-07-30T00:49:33.194Z,21.36
2016-07-30T00:50:21.899Z,21.33
2016-07-30T00:51:16.241Z,21.39
2016-07-30T00:52:27.612Z,21.36
2016-07-30T00:53:28.148Z,21.34
2016-07-30T00:54:20.994Z,21.34
2016-07-30T00:55:26.397Z,21.34
2016-07-30T00:56:26.401Z,21.35
2016-07-30T00:57:31.996Z,21.36
2016-07-30T00:58:28.885Z,21.33
2016-07-30T00:59:21.449Z,21.32
2016-07-30T01:00:23.361Z,21.31
2016-07-30T01:01:27.796Z,21.33
2016-07-30T01:02:32.614Z,21.32
2016-07-30T01:03:34.078Z,21.30
2016-07-30T01:04:26.745Z,21.27
2016-07-30T01:05:27.454Z,21.26
2016-07-30T01:06:26.143Z,21.29
2016-07-30T01:07:27.342Z,21.30
2016-07-30T01:08:13.603Z,21.28
2016-07-30T01:09:20.891Z,21.27
2016-07-30T01:10:28.382Z,21.27
2016-07-30T01:11:30.998Z,21.26
2016-07-30T01:12:17.374Z,21.24
2016-07-30T01:13:28.024Z,21.19
2016-07-30T01:14:22.316Z,21.19
2016-07-30T01:15:19.757Z,21.19
2016-07-30T01:16:26.816Z,21.19
2016-07-30T01:17:26.125Z,21.19
2016-07-30T01:18:29.808Z,21.15
2016-07-30T01:19:33.831Z,21.17
2016-07-30T01:20:26.958Z,21.16
2016-07-30T01:21:15.960Z,21.16
2016-07-30T01:22:32.106Z,21.18
2016-07-30T01:23:26.416Z,21.14
2016-07-30T01:24:14.878Z,21.14
2016-07-30T01:25:12.589Z,21.12
2016-07-30T01:26:26.176Z,21.62
2016-07-30T01:27:20.977Z,21.50
2016-07-30T01:28:26.024Z,21.20
2016-07-30T01:29:18.697Z,21.16
2016-07-30T01:30:28.138Z,21.65
2016-07-30T01:31:26.444Z,21.70
2016-07-30T01:32:32.786Z,21.73
2016-07-30T01:33:28.232Z,21.41
2016-07-30T01:34:16.304Z,21.20
2016-07-30T01:35:14.988Z,21.15
2016-07-30T01:36:22.034Z,21.67
2016-07-30T01:37:35.180Z,21.71
2016-07-30T01:38:26.400Z,21.20
2016-07-30T01:39:25.734Z,21.15
2016-07-30T01:40:26.466Z,21.14
2016-07-30T01:41:27.452Z,21.12
2016-07-30T01:42:22.547Z,21.10
2016-07-30T01:43:31.344Z,21.10
2016-07-30T01:44:26.043Z,21.12
2016-07-30T01:45:26.596Z,21.12
2016-07-30T01:46:27.969Z,21.13
2016-07-30T01:47:28.245Z,21.11
2016-07-30T01:48:28.356Z,21.11
2016-07-30T01:49:20.473Z,21.20
2016-07-30T01:50:27.288Z,21.10
2016-07-30T01:51:29.646Z,21.11
2016-07-30T01:53:31.868Z,21.09
2016-07-30T01:54:27.912Z,21.07
2016-07-30T01:55:27.480Z,21.08
2016-07-30T01:56:17.150Z,21.07
2016-07-30T01:57:14.649Z,21.05
2016-07-30T01:58:27.317Z,21.06
2016-07-30T01:59:32.881Z,21.04
2016-07-30T02:00:22.449Z,21.04
2016-07-30T02:01:27.608Z,21.06
2016-07-30T02:02:16.784Z,21.05
2016-07-30T02:03:23.856Z,21.58
2016-07-30T02:04:15.188Z,21.29
2016-07-30T02:05:14.102Z,21.10
2016-07-30T02:06:23.349Z,21.07
2016-07-30T02:07:33.613Z,21.04
2016-07-30T02:08:25.885Z,21.03
2016-07-30T02:09:26.207Z,20.99
2016-07-30T02:10:27.802Z,21.54
2016-07-30T02:11:26.065Z,21.25
2016-07-30T02:12:27.209Z,21.12
2016-07-30T02:13:25.013Z,21.08
2016-07-30T02:14:30.472Z,21.06
2016-07-30T02:15:25.631Z,21.05
2016-07-30T02:16:25.355Z,21.04
2016-07-30T02:17:27.775Z,21.01
2016-07-30T02:18:26.955Z,20.98
2016-07-30T02:19:23.496Z,20.99
2016-07-30T02:20:15.280Z,20.98
2016-07-30T02:21:19.117Z,21.06
2016-07-30T02:23:26.216Z,20.96
2016-07-30T02:24:27.622Z,20.95
2016-07-30T02:25:26.194Z,20.94
2016-07-30T02:26:17.188Z,20.90
2016-07-30T02:27:22.639Z,20.92
2016-07-30T02:28:29.356Z,20.91
2016-07-30T02:29:33.657Z,20.90
2016-07-30T02:30:26.287Z,20.88
2016-07-30T02:31:28.401Z,20.86
2016-07-30T02:32:31.570Z,20.88
2016-07-30T02:33:22.035Z,20.87
2016-07-30T02:34:26.335Z,21.42
2016-07-30T02:35:26.544Z,20.92
2016-07-30T02:36:26.926Z,20.90
2016-07-30T02:38:28.829Z,20.83
2016-07-30T02:39:16.645Z,20.83
2016-07-30T02:40:15.049Z,20.82
2016-07-30T02:41:33.055Z,20.82
2016-07-30T02:42:25.687Z,20.82
2016-07-30T02:43:26.114Z,20.80
2016-07-30T02:44:28.814Z,20.80
2016-07-30T02:45:21.108Z,20.81
2016-07-30T02:46:21.855Z,20.78
2016-07-30T02:47:26.537Z,20.75
2016-07-30T02:48:25.100Z,20.75
2016-07-30T02:49:29.756Z,20.74
2016-07-30T02:50:24.910Z,20.74
2016-07-30T02:51:26.010Z,20.73
2016-07-30T02:52:28.065Z,20.71
2016-07-30T02:53:22.586Z,20.71
2016-07-30T02:54:29.087Z,20.79
2016-07-30T02:55:30.805Z,20.70
2016-07-30T02:56:21.048Z,20.72
2016-07-30T02:57:25.718Z,20.71
2016-07-30T02:58:26.810Z,20.75
2016-07-30T02:59:27.331Z,20.73
2016-07-30T03:00:27.506Z,20.69
2016-07-30T03:01:26.440Z,20.69
2016-07-30T03:02:27.789Z,20.70
2016-07-30T03:03:27.033Z,20.71
2016-07-30T03:04:28.034Z,20.69
2016-07-30T03:05:29.002Z,20.70
2016-07-30T03:06:25.898Z,20.69
2016-07-30T03:07:27.854Z,20.68
2016-07-30T03:08:26.466Z,20.68
2016-07-30T03:09:33.605Z,20.66
2016-07-30T03:10:26.332Z,20.67
2016-07-30T03:11:22.985Z,20.66
2016-07-30T03:12:26.264Z,20.68
2016-07-30T03:13:28.850Z,20.68
2016-07-30T03:14:26.591Z,20.69
2016-07-30T03:15:26.352Z,20.69
2016-07-30T03:16:30.419Z,20.71
2016-07-30T03:17:15.776Z,20.67
2016-07-30T03:18:15.415Z,21.20
2016-07-30T03:19:26.876Z,21.27
2016-07-30T03:20:19.464Z,21.27
2016-07-30T03:21:22.631Z,21.29
2016-07-30T03:22:27.904Z,21.32
2016-07-30T03:23:26.524Z,21.29
2016-07-30T03:24:28.025Z,21.31
2016-07-30T03:25:32.567Z,21.32
2016-07-30T03:26:19.303Z,21.30
2016-07-30T03:27:27.584Z,21.30
2016-07-30T03:28:28.282Z,21.31
2016-07-30T03:29:27.391Z,21.31
2016-07-30T03:30:22.275Z,21.33
2016-07-30T03:31:29.226Z,21.33
2016-07-30T03:32:20.650Z,21.26
2016-07-30T03:33:25.789Z,21.28
2016-07-30T03:34:27.360Z,20.76
2016-07-30T03:35:27.857Z,20.69
2016-07-30T03:36:24.275Z,20.66
2016-07-30T03:37:28.596Z,20.66
2016-07-30T03:38:20.674Z,20.72
2016-07-30T03:39:26.321Z,21.15
2016-07-30T03:40:25.507Z,20.85
2016-07-30T03:41:20.504Z,20.69
2016-07-30T03:42:26.974Z,20.65
2016-07-30T03:43:30.559Z,20.61
2016-07-30T03:44:28.749Z,20.62
2016-07-30T03:45:19.777Z,20.60
2016-07-30T03:46:26.381Z,20.60
2016-07-30T03:47:28.400Z,20.59
2016-07-30T03:48:26.549Z,20.57
2016-07-30T03:49:26.632Z,20.59
2016-07-30T03:50:26.917Z,20.58
2016-07-30T03:51:19.385Z,20.62
2016-07-30T03:52:28.684Z,20.61
2016-07-30T03:53:33.557Z,20.58
2016-07-30T03:54:17.005Z,20.58
2016-07-30T03:55:25.930Z,20.58
2016-07-30T03:56:14.964Z,20.55
2016-07-30T03:57:28.230Z,20.55
2016-07-30T03:58:27.838Z,20.55
2016-07-30T03:59:26.194Z,20.56
2016-07-30T04:00:27.197Z,20.55
2016-07-30T04:01:26.492Z,20.55
2016-07-30T04:02:20.616Z,20.55
2016-07-30T04:03:24.415Z,20.54
2016-07-30T04:04:25.544Z,21.11
2016-07-30T04:05:20.455Z,21.15
2016-07-30T04:06:25.066Z,21.18
2016-07-30T04:07:28.774Z,21.20
2016-07-30T04:08:27.163Z,21.22
2016-07-30T04:09:26.362Z,20.87
2016-07-30T04:10:27.894Z,20.68
2016-07-30T04:11:30.734Z,20.64
2016-07-30T04:12:20.996Z,20.61
2016-07-30T04:13:21.469Z,20.60
2016-07-30T04:14:27.584Z,20.59
2016-07-30T04:15:26.429Z,20.61
2016-07-30T04:16:22.987Z,20.61
2016-07-30T04:17:32.815Z,20.58
2016-07-30T04:18:21.041Z,20.58
2016-07-30T04:19:26.900Z,20.59
2016-07-30T04:20:52.708Z,20.58
2016-07-30T04:21:30.587Z,20.56
2016-07-30T04:22:19.535Z,20.57
2016-07-30T04:23:29.985Z,20.58
2016-07-30T04:24:26.566Z,20.60
2016-07-30T04:25:25.722Z,20.66
2016-07-30T04:26:12.320Z,20.59
2016-07-30T04:27:18.401Z,20.79
2016-07-30T04:28:27.073Z,20.63
2016-07-30T04:29:22.638Z,20.61
2016-07-30T04:30:33.519Z,20.60
2016-07-30T04:31:26.776Z,20.66
2016-07-30T04:32:19.748Z,20.57
2016-07-30T04:33:25.128Z,20.58
2016-07-30T04:34:31.799Z,20.59
2016-07-30T04:35:14.405Z,20.57
2016-07-30T04:36:32.009Z,20.57
2016-07-30T04:37:26.421Z,20.54
2016-07-30T04:38:26.430Z,20.56
2016-07-30T04:39:26.397Z,20.55
2016-07-30T04:40:32.356Z,20.54
2016-07-30T04:41:27.178Z,21.10
2016-07-30T04:42:26.827Z,21.16
2016-07-30T04:43:32.893Z,21.21
2016-07-30T04:44:29.751Z,21.22
2016-07-30T04:45:20.181Z,21.21
2016-07-30T04:46:27.133Z,20.89
2016-07-30T04:47:27.253Z,20.73
2016-07-30T04:48:28.391Z,20.69
2016-07-30T04:49:27.121Z,20.66
2016-07-30T04:50:27.917Z,20.64
2016-07-30T04:51:26.390Z,20.64
2016-07-30T04:52:31.287Z,20.64
2016-07-30T04:53:27.479Z,20.67
2016-07-30T04:54:26.689Z,20.69
2016-07-30T04:55:25.731Z,20.70
2016-07-30T04:56:28.458Z,20.67
2016-07-30T04:57:26.690Z,20.67
2016-07-30T04:58:28.227Z,20.67
2016-07-30T04:59:27.699Z,20.64
2016-07-30T05:00:27.958Z,20.65
2016-07-30T05:01:34.091Z,20.66
2016-07-30T05:02:26.725Z,20.67
2016-07-30T05:03:20.856Z,20.65
2016-07-30T05:04:25.096Z,20.65
2016-07-30T05:05:27.051Z,20.70
2016-07-30T05:06:27.362Z,20.68
2016-07-30T05:07:27.091Z,20.67
2016-07-30T05:08:33.041Z,20.66
2016-07-30T05:09:27.984Z,20.66
2016-07-30T05:10:28.516Z,20.69
2016-07-30T05:11:26.087Z,20.70
2016-07-30T05:12:26.240Z,20.72
2016-07-30T05:13:27.234Z,20.69
2016-07-30T05:14:33.221Z,20.69
2016-07-30T05:15:27.969Z,20.67
2016-07-30T05:16:22.158Z,20.68
2016-07-30T05:17:28.216Z,20.67
2016-07-30T05:18:37.537Z,20.70
2016-07-30T05:19:27.978Z,20.70
2016-07-30T05:20:22.035Z,20.72
2016-07-30T05:21:24.300Z,20.69
2016-07-30T05:22:26.425Z,20.72
2016-07-30T05:23:25.246Z,20.72
2016-07-30T05:24:13.992Z,20.72
2016-07-30T05:25:27.748Z,20.75
2016-07-30T05:26:26.221Z,20.75
2016-07-30T05:27:22.216Z,20.78
2016-07-30T05:28:27.755Z,20.75
2016-07-30T05:29:27.443Z,20.75
2016-07-30T05:30:27.216Z,20.76
2016-07-30T05:31:26.825Z,20.76
2016-07-30T05:32:27.570Z,20.79
2016-07-30T05:33:26.896Z,20.82
2016-07-30T05:34:26.523Z,20.84
2016-07-30T05:35:28.264Z,20.86
2016-07-30T05:36:22.798Z,20.87
2016-07-30T05:37:23.612Z,20.87
2016-07-30T05:38:27.226Z,21.04
2016-07-30T05:39:19.908Z,20.92
2016-07-30T05:40:27.413Z,20.91
2016-07-30T05:41:26.406Z,20.93
2016-07-30T05:42:27.937Z,20.94
2016-07-30T05:43:27.316Z,20.95
2016-07-30T05:44:27.803Z,20.93
2016-07-30T05:45:22.141Z,20.95
2016-07-30T05:46:15.632Z,20.98
2016-07-30T05:47:28.486Z,20.96
2016-07-30T05:48:21.134Z,20.95
2016-07-30T05:49:27.570Z,21.50
2016-07-30T05:50:32.128Z,21.56
2016-07-30T05:51:26.006Z,21.24
2016-07-30T05:52:23.073Z,21.07
2016-07-30T05:54:26.643Z,21.01
2016-07-30T05:55:16.535Z,21.01
2016-07-30T05:56:28.065Z,20.98
2016-07-30T05:57:27.334Z,21.00
2016-07-30T05:58:13.185Z,21.02
2016-07-30T05:59:26.501Z,21.56
2016-07-30T06:00:28.371Z,21.64
2016-07-30T06:01:28.034Z,21.33
2016-07-30T06:02:15.245Z,21.16
2016-07-30T06:03:16.331Z,21.20
2016-07-30T06:04:27.149Z,21.29
2016-07-30T06:05:23.425Z,21.15
2016-07-30T06:06:27.280Z,21.14
2016-07-30T06:07:15.149Z,21.17
2016-07-30T06:09:16.017Z,21.16
2016-07-30T06:10:26.781Z,21.23
2016-07-30T06:11:27.677Z,21.18
2016-07-30T06:12:22.723Z,21.18
2016-07-30T06:13:33.297Z,21.20
2016-07-30T06:14:23.557Z,21.20
2016-07-30T06:15:27.330Z,21.22
2016-07-30T06:16:18.977Z,21.22
2016-07-30T06:17:28.043Z,21.22
2016-07-30T06:18:15.683Z,21.25
2016-07-30T06:19:27.344Z,21.24
2016-07-30T06:20:29.941Z,21.27
2016-07-30T06:21:12.951Z,21.33
2016-07-30T06:22:31.583Z,21.28
2016-07-30T06:23:11.559Z,21.29
2016-07-30T06:24:28.787Z,21.31
2016-07-30T06:25:13.216Z,21.33
2016-07-30T06:26:28.716Z,21.35
2016-07-30T06:27:15.804Z,21.37
2016-07-30T06:28:29.299Z,21.38
2016-07-30T06:29:28.083Z,21.39
2016-07-30T06:30:20.836Z,21.40
2016-07-30T06:31:32.321Z,21.39
2016-07-30T06:32:12.543Z,21.41
2016-07-30T06:33:27.879Z,21.43
2016-07-30T06:34:32.347Z,21.46
2016-07-30T06:35:32.260Z,21.45
2016-07-30T06:36:30.265Z,21.48
2016-07-30T06:37:31.917Z,21.51
2016-07-30T06:38:12.934Z,21.54
2016-07-30T06:39:29.266Z,21.52
2016-07-30T06:40:27.625Z,21.53
2016-07-30T06:41:27.400Z,21.52
2016-07-30T06:42:28.714Z,21.53
2016-07-30T06:43:22.147Z,21.53
2016-07-30T06:44:27.290Z,21.54
2016-07-30T06:45:27.475Z,21.56
2016-07-30T06:46:33.626Z,21.55
2016-07-30T06:47:29.911Z,21.58
2016-07-30T06:48:33.822Z,21.58
2016-07-30T06:49:28.529Z,21.61
2016-07-30T06:50:29.760Z,21.60
2016-07-30T06:51:26.239Z,21.63
2016-07-30T06:52:12.611Z,21.64
2016-07-30T06:53:14.755Z,21.66
2016-07-30T06:54:33.225Z,21.72
2016-07-30T06:55:21.579Z,21.67
2016-07-30T06:56:12.062Z,21.67
2016-07-30T06:57:25.301Z,21.82
2016-07-30T06:58:13.867Z,21.73
2016-07-30T06:59:25.894Z,21.75
2016-07-30T07:00:32.935Z,21.72
2016-07-30T07:01:13.533Z,21.71
2016-07-30T07:02:27.036Z,21.71
2016-07-30T07:03:28.612Z,21.72
2016-07-30T07:04:30.513Z,21.73
2016-07-30T07:05:26.099Z,21.79
2016-07-30T07:06:19.673Z,21.74
2016-07-30T07:07:28.828Z,21.76
2016-07-30T07:08:21.570Z,21.76
2016-07-30T07:09:26.871Z,21.77
2016-07-30T07:10:22.811Z,21.82
2016-07-30T07:11:27.545Z,21.79
2016-07-30T07:12:26.349Z,21.80
2016-07-30T07:13:33.214Z,21.81
2016-07-30T07:14:22.090Z,21.81
2016-07-30T07:15:12.912Z,21.82
2016-07-30T07:16:25.732Z,21.84
2016-07-30T07:17:28.661Z,21.84
2016-07-30T07:18:26.909Z,21.88
2016-07-30T07:19:26.721Z,21.85
2016-07-30T07:20:13.011Z,21.89
2016-07-30T07:21:26.950Z,21.87
2016-07-30T07:22:27.913Z,21.87
2016-07-30T07:23:12.679Z,21.88
2016-07-30T07:24:34.146Z,21.90
2016-07-30T07:25:16.706Z,21.89
2016-07-30T07:26:26.683Z,21.91
2016-07-30T07:27:26.592Z,21.91
2016-07-30T07:28:23.019Z,21.94
2016-07-30T07:29:26.920Z,21.95
2016-07-30T07:30:13.765Z,21.95
2016-07-30T07:31:12.878Z,21.96
2016-07-30T07:32:32.879Z,22.03
2016-07-30T07:33:28.067Z,22.00
2016-07-30T07:34:27.802Z,22.01
2016-07-30T07:35:22.220Z,22.02
2016-07-30T07:36:19.358Z,22.03
2016-07-30T07:37:28.706Z,22.04
2016-07-30T07:38:28.737Z,22.04
2016-07-30T07:39:28.223Z,22.04
2016-07-30T07:40:26.887Z,22.05
2016-07-30T07:41:28.607Z,22.07
2016-07-30T07:42:27.401Z,22.07
2016-07-30T07:43:28.476Z,22.09
2016-07-30T07:44:27.405Z,22.10
2016-07-30T07:45:28.597Z,22.09
2016-07-30T07:46:21.519Z,22.10
2016-07-30T07:47:28.223Z,22.09
2016-07-30T07:48:12.296Z,22.09
2016-07-30T07:49:33.789Z,22.17
2016-07-30T07:50:32.364Z,22.66
2016-07-30T07:51:28.178Z,22.71
2016-07-30T07:52:09.401Z,22.75
2016-07-30T07:53:21.471Z,22.77
2016-07-30T07:54:27.450Z,22.78
2016-07-30T07:55:27.463Z,22.81
2016-07-30T07:56:14.179Z,22.83
2016-07-30T07:57:32.334Z,22.86
2016-07-30T07:58:14.881Z,22.57
2016-07-30T07:59:20.329Z,22.87
2016-07-30T08:00:30.811Z,22.89
2016-07-30T08:01:28.016Z,22.89
2016-07-30T08:02:27.769Z,22.91
2016-07-30T08:03:28.674Z,22.92
2016-07-30T08:04:27.689Z,22.92
2016-07-30T08:05:27.278Z,22.92
2016-07-30T08:06:13.693Z,22.94
2016-07-30T08:07:27.125Z,22.95
2016-07-30T08:08:28.535Z,22.61
2016-07-30T08:09:25.668Z,22.44
2016-07-30T08:10:32.730Z,22.47
2016-07-30T08:11:28.476Z,22.44
2016-07-30T08:12:14.984Z,22.37
2016-07-30T08:13:12.118Z,22.40
2016-07-30T08:14:28.445Z,22.40
2016-07-30T08:15:19.756Z,22.40
2016-07-30T08:16:30.367Z,22.48
2016-07-30T08:17:26.818Z,22.44
2016-07-30T08:18:28.562Z,22.43
2016-07-30T08:19:15.755Z,22.42
2016-07-30T08:20:27.671Z,22.42
2016-07-30T08:21:25.529Z,22.43
2016-07-30T08:22:27.683Z,22.43
2016-07-30T08:23:27.355Z,22.43
2016-07-30T08:24:25.831Z,22.44
2016-07-30T08:25:26.705Z,22.44
2016-07-30T08:26:27.595Z,22.45
2016-07-30T08:27:39.223Z,22.45
2016-07-30T08:28:25.016Z,22.46
2016-07-30T08:29:26.988Z,22.45
2016-07-30T08:30:28.120Z,22.47
2016-07-30T08:31:30.044Z,22.47
2016-07-30T08:32:13.214Z,22.50
2016-07-30T08:33:26.689Z,22.49
2016-07-30T08:34:28.675Z,22.49
2016-07-30T08:35:27.075Z,22.52
2016-07-30T08:36:26.959Z,22.50
2016-07-30T08:37:12.354Z,22.50
2016-07-30T08:38:33.466Z,22.50
2016-07-30T08:39:32.278Z,22.50
2016-07-30T08:40:28.716Z,22.51
2016-07-30T08:41:11.454Z,23.03
2016-07-30T08:42:14.800Z,22.58
2016-07-30T08:43:28.357Z,22.55
2016-07-30T08:44:23.520Z,22.58
2016-07-30T08:45:26.189Z,22.56
2016-07-30T08:46:27.268Z,22.57
2016-07-30T08:47:32.913Z,22.60
2016-07-30T08:48:10.710Z,22.56
2016-07-30T08:49:14.956Z,22.57
2016-07-30T08:50:16.922Z,22.63
2016-07-30T08:51:27.306Z,22.62
2016-07-30T08:52:12.961Z,22.61
2016-07-30T08:53:12.917Z,23.12
2016-07-30T08:54:24.032Z,23.17
2016-07-30T08:55:12.878Z,23.19
2016-07-30T08:56:27.841Z,22.69
2016-07-30T08:57:28.919Z,22.64
2016-07-30T08:58:12.609Z,22.65
2016-07-30T08:59:29.139Z,22.61
2016-07-30T09:00:22.074Z,22.65
2016-07-30T09:01:19.560Z,22.64
2016-07-30T09:02:22.352Z,22.63
2016-07-30T09:03:15.720Z,22.63
2016-07-30T09:04:28.094Z,22.61
2016-07-30T09:05:20.432Z,22.61
2016-07-30T09:06:26.329Z,22.62
2016-07-30T09:07:33.363Z,22.63
2016-07-30T09:08:12.821Z,22.67
2016-07-30T09:09:22.030Z,22.65
2016-07-30T09:10:15.790Z,22.67
2016-07-30T09:11:27.068Z,22.68
2016-07-30T09:12:33.628Z,22.73
2016-07-30T09:13:19.267Z,22.70
2016-07-30T09:14:19.003Z,22.70
2016-07-30T09:15:26.510Z,22.73
2016-07-30T09:16:25.710Z,22.72
2016-07-30T09:17:26.939Z,22.76
2016-07-30T09:18:13.539Z,22.77
2016-07-30T09:19:15.358Z,22.79
2016-07-30T09:20:12.563Z,22.74
2016-07-30T09:21:12.441Z,22.76
2016-07-30T09:22:14.186Z,22.70
2016-07-30T09:23:14.274Z,22.69
2016-07-30T09:25:14.383Z,22.67
2016-07-30T09:26:11.236Z,22.66
2016-07-30T09:27:13.143Z,23.19
2016-07-30T09:28:12.373Z,22.72
2016-07-30T09:29:13.233Z,22.69
2016-07-30T09:30:15.065Z,22.68
2016-07-30T09:31:12.349Z,22.67
2016-07-30T09:32:13.765Z,22.67
2016-07-30T09:33:12.160Z,22.72
2016-07-30T09:34:12.059Z,22.67
2016-07-30T09:35:18.915Z,22.68
2016-07-30T09:36:15.289Z,22.69
2016-07-30T09:37:12.402Z,22.69
2016-07-30T09:38:12.448Z,22.69
2016-07-30T09:40:15.394Z,22.70
2016-07-30T09:41:16.119Z,22.70
2016-07-30T09:42:12.514Z,22.70
2016-07-30T09:43:23.653Z,22.73
2016-07-30T09:44:30.996Z,22.70
2016-07-30T09:45:28.724Z,22.70
2016-07-30T09:46:20.141Z,22.72
2016-07-30T09:47:25.343Z,22.72
2016-07-30T09:48:24.072Z,22.73
2016-07-30T09:49:13.243Z,22.74
2016-07-30T09:50:27.772Z,22.75
2016-07-30T09:51:11.830Z,22.75
2016-07-30T09:52:27.850Z,22.90
2016-07-30T09:53:27.722Z,22.87
2016-07-30T09:54:27.877Z,22.78
2016-07-30T09:55:26.830Z,22.81
2016-07-30T09:56:13.129Z,22.77
2016-07-30T09:57:12.348Z,22.77
2016-07-30T09:58:12.675Z,22.77
2016-07-30T09:59:13.963Z,22.81
2016-07-30T10:00:21.817Z,22.76
2016-07-30T10:01:16.432Z,22.80
2016-07-30T10:02:24.250Z,22.77
2016-07-30T10:03:22.084Z,22.76
2016-07-30T10:04:25.853Z,22.76
2016-07-30T10:05:19.449Z,22.77
2016-07-30T10:06:11.400Z,22.76
2016-07-30T10:07:12.774Z,23.29
2016-07-30T10:08:31.562Z,23.33
2016-07-30T10:10:13.004Z,22.81
2016-07-30T10:11:19.879Z,23.33
2016-07-30T10:12:17.509Z,23.38
2016-07-30T10:13:32.482Z,23.39
2016-07-30T10:14:23.327Z,23.39
2016-07-30T10:15:27.783Z,23.40
2016-07-30T10:16:11.568Z,23.40
2016-07-30T10:17:24.253Z,22.86
2016-07-30T10:18:17.118Z,22.82
2016-07-30T10:19:14.687Z,22.80
2016-07-30T10:20:21.101Z,22.77
2016-07-30T10:21:27.170Z,22.80
2016-07-30T10:22:26.824Z,22.80
2016-07-30T10:23:11.885Z,22.77
2016-07-30T10:24:13.599Z,22.80
2016-07-30T10:25:16.625Z,22.77
2016-07-30T10:26:27.756Z,22.78
2016-07-30T10:27:32.119Z,22.78
2016-07-30T10:28:14.811Z,22.79
2016-07-30T10:29:27.899Z,22.78
2016-07-30T10:30:32.770Z,22.80
2016-07-30T10:31:14.561Z,22.78
2016-07-30T10:32:19.769Z,22.77
2016-07-30T10:33:23.191Z,22.81
2016-07-30T10:34:12.870Z,22.80
2016-07-30T10:35:22.673Z,22.82
2016-07-30T10:36:28.021Z,22.79
2016-07-30T10:37:20.333Z,22.81
2016-07-30T10:38:13.939Z,22.86
2016-07-30T10:39:13.408Z,22.85
2016-07-30T10:40:26.338Z,23.37
2016-07-30T10:41:27.041Z,22.88
2016-07-30T10:42:21.751Z,22.85
2016-07-30T10:43:21.601Z,22.83
2016-07-30T10:44:21.121Z,22.85
2016-07-30T10:45:15.378Z,22.84
2016-07-30T10:46:16.671Z,22.83
2016-07-30T10:47:12.193Z,22.84
2016-07-30T10:48:26.949Z,22.84
2016-07-30T10:49:27.418Z,22.85
2016-07-30T10:50:26.944Z,22.84
2016-07-30T10:51:21.750Z,22.82
2016-07-30T10:52:26.220Z,22.86
2016-07-30T10:53:14.730Z,22.87
2016-07-30T10:54:14.423Z,22.86
2016-07-30T10:55:16.016Z,22.87
2016-07-30T10:56:27.019Z,22.85
2016-07-30T10:57:32.003Z,22.85
2016-07-30T10:58:26.709Z,22.85
2016-07-30T10:59:27.616Z,22.85
2016-07-30T11:00:27.726Z,22.85
2016-07-30T11:01:13.797Z,22.86
2016-07-30T11:02:14.020Z,22.85
2016-07-30T11:03:27.416Z,22.85
2016-07-30T11:04:13.487Z,22.93
2016-07-30T11:05:12.219Z,22.88
2016-07-30T11:06:21.701Z,22.89
2016-07-30T11:07:32.543Z,22.87
2016-07-30T11:08:20.165Z,22.89
2016-07-30T11:09:17.287Z,22.86
2016-07-30T11:10:28.687Z,22.83
2016-07-30T11:11:30.433Z,22.85
2016-07-30T11:12:13.372Z,22.84
2016-07-30T11:13:22.513Z,22.91
2016-07-30T11:14:19.913Z,22.88
2016-07-30T11:15:33.869Z,22.88
2016-07-30T11:16:26.954Z,22.89
2016-07-30T11:17:20.092Z,23.43
2016-07-30T11:18:27.367Z,22.97
2016-07-30T11:19:27.790Z,22.95
2016-07-30T11:20:13.706Z,22.94
2016-07-30T11:21:22.947Z,22.95
2016-07-30T11:22:25.811Z,22.98
2016-07-30T11:23:12.394Z,22.97
2016-07-30T11:24:14.495Z,22.93
2016-07-30T11:25:26.561Z,22.95
2016-07-30T11:26:20.919Z,22.95
2016-07-30T11:27:25.543Z,22.94
2016-07-30T11:28:14.815Z,22.96
2016-07-30T11:29:13.818Z,22.94
2016-07-30T11:30:33.176Z,22.93
2016-07-30T11:31:17.090Z,22.94
2016-07-30T11:32:12.801Z,22.94
2016-07-30T11:33:27.240Z,22.94
2016-07-30T11:34:27.653Z,22.93
2016-07-30T11:35:10.212Z,22.92
2016-07-30T11:36:12.324Z,22.92
2016-07-30T11:37:28.838Z,23.04
2016-07-30T11:38:20.441Z,23.45
2016-07-30T11:39:27.110Z,23.51
2016-07-30T11:40:12.288Z,23.56
2016-07-30T11:41:14.225Z,23.05
2016-07-30T11:42:18.202Z,22.98
2016-07-30T11:43:28.049Z,22.97
2016-07-30T11:44:13.941Z,22.95
2016-07-30T11:45:15.197Z,22.95
2016-07-30T11:46:27.792Z,22.95
2016-07-30T11:47:27.584Z,22.93
2016-07-30T11:48:19.385Z,23.47
2016-07-30T11:49:31.178Z,23.53
2016-07-30T11:50:29.498Z,23.53
2016-07-30T11:51:20.007Z,23.04
2016-07-30T11:52:24.826Z,22.99
2016-07-30T11:53:27.250Z,22.96
2016-07-30T11:54:13.001Z,22.95
2016-07-30T11:55:17.137Z,22.94
2016-07-30T11:56:17.251Z,22.98
2016-07-30T11:57:12.702Z,22.93
2016-07-30T11:58:21.152Z,22.94
2016-07-30T11:59:22.394Z,23.48
2016-07-30T12:00:26.776Z,23.00
2016-07-30T12:01:25.385Z,22.96
2016-07-30T12:02:27.295Z,22.96
2016-07-30T12:03:13.019Z,23.02
2016-07-30T12:04:23.337Z,22.95
2016-07-30T12:05:27.005Z,22.95
2016-07-30T12:06:16.009Z,22.95
2016-07-30T12:07:16.708Z,22.95
2016-07-30T12:08:23.595Z,22.96
2016-07-30T12:09:25.115Z,22.95
2016-07-30T12:10:21.116Z,23.00
2016-07-30T12:11:25.693Z,23.12
2016-07-30T12:12:21.889Z,23.02
2016-07-30T12:13:26.690Z,22.99
2016-07-30T12:14:26.900Z,22.97
2016-07-30T12:15:13.975Z,22.96
2016-07-30T12:16:12.437Z,22.95
2016-07-30T12:17:28.972Z,22.95
2016-07-30T12:18:28.045Z,22.95
2016-07-30T12:19:27.435Z,22.95
2016-07-30T12:20:13.270Z,22.95
2016-07-30T12:21:26.632Z,22.95
2016-07-30T12:22:27.278Z,22.99
2016-07-30T12:23:32.727Z,22.97
2016-07-30T12:24:17.465Z,22.95
2016-07-30T12:25:23.780Z,22.95
2016-07-30T12:26:22.573Z,22.95
2016-07-30T12:27:25.873Z,22.95
2016-07-30T12:28:25.217Z,22.95
2016-07-30T12:29:13.067Z,22.99
2016-07-30T12:30:17.506Z,22.94
2016-07-30T12:31:21.958Z,23.01
2016-07-30T12:32:15.182Z,22.98
2016-07-30T12:33:12.823Z,22.93
2016-07-30T12:34:11.874Z,22.95
2016-07-30T12:35:12.634Z,22.94
2016-07-30T12:36:20.448Z,22.95
2016-07-30T12:37:15.870Z,22.95
2016-07-30T12:38:21.722Z,22.94
2016-07-30T12:39:19.531Z,23.46
2016-07-30T12:40:22.087Z,23.16
2016-07-30T12:41:28.553Z,23.03
2016-07-30T12:42:15.487Z,22.99
2016-07-30T12:43:12.718Z,22.99
2016-07-30T12:44:13.304Z,22.98
2016-07-30T12:45:12.622Z,22.98
2016-07-30T12:46:12.242Z,23.00
2016-07-30T12:47:14.158Z,22.98
2016-07-30T12:48:13.977Z,22.99
2016-07-30T12:49:32.748Z,22.97
2016-07-30T12:50:12.455Z,22.99
2016-07-30T12:51:13.221Z,22.98
2016-07-30T12:52:32.102Z,22.99
2016-07-30T12:53:27.220Z,22.98
2016-07-30T12:54:18.752Z,23.01
2016-07-30T12:55:15.243Z,22.99
2016-07-30T12:56:15.068Z,22.99
2016-07-30T12:57:26.981Z,23.00
2016-07-30T12:58:31.327Z,23.01
2016-07-30T12:59:14.874Z,23.00
2016-07-30T13:00:13.929Z,23.01